createdAt,value
2023-04-25T00:02:09.816Z,9.80
2023-04-25T00:07:12.200Z,9.80
2023-04-25T00:12:14.062Z,9.80
2023-04-25T00:17:15.976Z,9.80
2023-04-25T00:22:18.414Z,9.90
2023-04-25T00:27:20.655Z,9.80
2023-04-25T00:32:22.374Z,9.70
2023-04-25T00:37:24.163Z,9.40
2023-04-25T00:42:26.603Z,9.20
2023-04-25T00:47:29.737Z,9.00
2023-04-25T00:52:31.532Z,8.90
2023-04-25T00:57:33.268Z,8.80
2023-04-25T01:02:36.601Z,8.70
2023-04-25T01:07:38.725Z,8.60
2023-04-25T01:12:40.939Z,8.50
2023-04-25T01:17:43.793Z,8.40
2023-04-25T01:22:46.984Z,8.30
2023-04-25T01:27:48.806Z,8.30
2023-04-25T01:32:50.869Z,8.10
2023-04-25T01:37:52.895Z,8.00
2023-04-25T01:42:55.613Z,8.00
2023-04-25T01:53:02.960Z,7.70
2023-04-25T01:58:09.977Z,7.70
2023-04-25T02:03:11.859Z,7.70
2023-04-25T02:08:13.873Z,7.60
2023-04-25T02:13:15.679Z,7.60
2023-04-25T02:18:18.683Z,7.50
2023-04-25T02:23:20.498Z,7.50
2023-04-25T02:28:22.362Z,7.40
2023-04-25T02:33:24.385Z,7.40
2023-04-25T02:38:26.417Z,7.30
2023-04-25T02:43:28.228Z,7.30
2023-04-25T02:48:30.384Z,7.30
2023-04-25T02:53:32.290Z,7.20
2023-04-25T02:58:33.994Z,7.20
2023-04-25T03:03:35.687Z,7.10
2023-04-25T03:08:37.490Z,7.10
2023-04-25T03:13:39.193Z,7.10
2023-04-25T03:18:41.330Z,7.00
2023-04-25T03:23:43.063Z,6.90
2023-04-25T03:28:44.780Z,6.90
2023-04-25T03:33:46.673Z,6.90
2023-04-25T03:38:49.320Z,6.80
2023-04-25T03:43:51.259Z,6.80
2023-04-25T03:48:53.376Z,6.80
2023-04-25T03:53:56.666Z,6.70
2023-04-25T03:58:58.387Z,6.80
2023-04-25T04:04:00.551Z,6.80
2023-04-25T04:09:02.504Z,6.80
2023-04-25T04:14:04.221Z,6.80
2023-04-25T04:19:06.277Z,6.80
2023-04-25T04:24:08.141Z,6.80
2023-04-25T04:29:10.114Z,6.80
2023-04-25T04:34:11.850Z,6.80
2023-04-25T04:39:14.108Z,6.90
2023-04-25T04:44:16.228Z,6.90
2023-04-25T04:49:18.490Z,6.90
2023-04-25T04:54:20.370Z,7.00
2023-04-25T04:59:22.334Z,7.00
2023-04-25T05:04:26.823Z,7.10
2023-04-25T05:09:28.689Z,7.20
2023-04-25T05:14:30.506Z,7.20
2023-04-25T05:19:34.194Z,7.20
2023-04-25T05:24:35.880Z,7.30
2023-04-25T05:29:37.582Z,7.40
2023-04-25T05:34:40.501Z,7.40
2023-04-25T05:39:42.169Z,7.50
2023-04-25T05:44:43.906Z,7.60
2023-04-25T05:49:45.642Z,7.70
2023-04-25T05:54:47.404Z,7.70
2023-04-25T05:59:49.140Z,7.80
2023-04-25T06:04:52.323Z,7.90
2023-04-25T06:09:54.444Z,8.00
2023-04-25T06:14:56.333Z,8.10
2023-04-25T06:19:58.003Z,8.20
2023-04-25T06:25:01.117Z,8.50
2023-04-25T06:30:02.905Z,8.60
2023-04-25T06:35:05.109Z,8.70
2023-04-25T06:40:07.500Z,9.00
2023-04-25T06:45:09.538Z,9.50
2023-04-25T06:50:11.904Z,9.90
2023-04-25T06:55:13.636Z,10.10
2023-04-25T07:00:16.023Z,10.40
2023-04-25T07:05:19.265Z,10.40
2023-04-25T07:10:22.351Z,10.30
2023-04-25T07:15:24.090Z,10.00
2023-04-25T07:20:25.901Z,10.10
2023-04-25T07:25:27.682Z,10.40
2023-04-25T07:30:30.797Z,10.50
2023-04-25T07:35:33.094Z,10.50
2023-04-25T07:40:36.437Z,10.80
2023-04-25T07:45:38.150Z,10.30
2023-04-25T07:50:41.174Z,10.20
2023-04-25T07:55:43.168Z,9.90
2023-04-25T08:00:44.837Z,9.50
2023-04-25T08:05:47.239Z,9.40
2023-04-25T08:10:49.334Z,9.30
2023-04-25T08:15:51.257Z,9.60
2023-04-25T08:20:53.025Z,10.10
2023-04-25T08:25:54.776Z,10.20
2023-04-25T08:30:56.518Z,10.90
2023-04-25T08:35:58.700Z,10.30
2023-04-25T08:41:02.249Z,10.20
2023-04-25T08:46:04.607Z,9.90
2023-04-25T08:56:19.350Z,10.40
2023-04-25T09:01:21.179Z,10.30
2023-04-25T09:06:24.494Z,10.30
2023-04-25T09:11:27.596Z,10.50
2023-04-25T09:16:29.434Z,10.90
2023-04-25T09:21:31.872Z,10.50
2023-04-25T09:26:33.570Z,10.70
2023-04-25T09:31:35.493Z,11.70
2023-04-25T09:36:37.476Z,12.10
2023-04-25T09:41:40.300Z,10.80
2023-04-25T09:46:42.338Z,10.90
2023-04-25T09:51:58.359Z,10.30
2023-04-25T09:57:11.898Z,9.80
2023-04-25T10:02:15.897Z,10.30
2023-04-25T10:07:18.948Z,10.00
2023-04-25T10:12:21.069Z,9.90
2023-04-25T10:17:23.530Z,10.00
2023-04-25T10:22:34.047Z,10.30
2023-04-25T10:27:36.419Z,10.80
2023-04-25T10:32:38.381Z,10.70
2023-04-25T10:37:57.203Z,11.10
2023-04-25T10:43:39.929Z,11.30
2023-04-25T10:48:48.956Z,10.60
2023-04-25T10:54:01.086Z,10.70
2023-04-25T10:59:11.475Z,10.50
2023-04-25T11:04:23.681Z,10.70
2023-04-25T11:09:26.062Z,11.10
2023-04-25T11:14:28.244Z,10.90
2023-04-25T11:19:31.195Z,10.90
2023-04-25T11:24:35.621Z,10.20
2023-04-25T11:29:37.503Z,9.90
2023-04-25T11:34:40.374Z,10.00
2023-04-25T11:39:47.212Z,10.10
2023-04-25T11:44:49.342Z,10.60
2023-04-25T11:49:54.579Z,10.50
2023-04-25T11:54:57.977Z,11.10
2023-04-25T12:00:17.620Z,11.30
2023-04-25T12:05:32.241Z,11.20
2023-04-25T12:10:42.038Z,11.00
2023-04-25T12:15:43.845Z,11.50
2023-04-25T12:20:45.615Z,11.40
2023-04-25T12:25:48.231Z,12.30
2023-04-25T12:31:07.566Z,11.90
2023-04-25T12:36:10.142Z,11.70
2023-04-25T12:41:12.040Z,11.20
2023-04-25T12:46:13.822Z,10.70
2023-04-25T12:51:16.265Z,11.00
2023-04-25T12:56:18.113Z,10.80
2023-04-25T13:01:20.190Z,11.00
2023-04-25T13:06:22.711Z,10.80
2023-04-25T13:11:24.737Z,10.80
2023-04-25T13:16:26.616Z,10.50
2023-04-25T13:21:33.045Z,10.40
2023-04-25T13:26:34.926Z,10.50
2023-04-25T13:31:36.845Z,10.70
2023-04-25T13:36:40.351Z,11.10
2023-04-25T13:41:42.164Z,12.20
2023-04-25T13:46:47.420Z,12.40
2023-04-25T13:51:49.596Z,11.60
2023-04-25T13:56:52.522Z,11.50
2023-04-25T14:01:55.036Z,12.30
2023-04-25T14:06:59.431Z,12.10
2023-04-25T14:12:01.549Z,11.90
2023-04-25T14:17:07.591Z,12.40
2023-04-25T14:22:09.338Z,11.80
2023-04-25T14:27:11.392Z,11.40
2023-04-25T14:32:13.317Z,11.80
2023-04-25T14:37:15.917Z,11.60
2023-04-25T14:42:17.627Z,11.80
2023-04-25T14:47:22.219Z,11.80
2023-04-25T14:52:24.202Z,12.10
2023-04-25T14:57:26.093Z,11.70
2023-04-25T15:02:28.887Z,11.80
2023-04-25T15:07:30.598Z,11.40
2023-04-25T15:12:32.648Z,11.20
2023-04-25T15:17:34.825Z,11.40
2023-04-25T15:22:40.579Z,11.40
2023-04-25T15:27:44.526Z,11.60
2023-04-25T15:32:47.152Z,11.40
2023-04-25T15:37:48.916Z,11.40
2023-04-25T15:42:52.087Z,11.10
2023-04-25T15:47:57.257Z,11.20
2023-04-25T15:52:59.458Z,11.30
2023-04-25T15:58:01.282Z,11.10
2023-04-25T16:03:03.960Z,11.10
2023-04-25T16:08:05.768Z,11.10
2023-04-25T16:13:07.562Z,10.90
2023-04-25T16:18:09.291Z,10.50
2023-04-25T16:23:11.004Z,10.60
2023-04-25T16:28:14.272Z,10.40
2023-04-25T16:33:16.158Z,10.30
2023-04-25T16:38:19.344Z,10.20
2023-04-25T16:43:21.365Z,10.30
2023-04-25T16:48:24.460Z,10.20
2023-04-25T16:53:26.710Z,10.30
2023-04-25T16:58:29.247Z,10.30
2023-04-25T17:03:34.018Z,10.40
2023-04-25T17:08:37.241Z,10.10
2023-04-25T17:13:39.042Z,10.20
2023-04-25T17:18:41.695Z,10.60
2023-04-25T17:23:45.750Z,10.60
2023-04-25T17:28:49.705Z,10.60
2023-04-25T17:33:51.607Z,10.30
2023-04-25T17:38:53.494Z,10.30
2023-04-25T17:43:55.460Z,10.30
2023-04-25T17:49:00.955Z,10.20
2023-04-25T17:54:02.962Z,9.90
2023-04-25T17:59:04.869Z,9.70
2023-04-25T18:04:06.598Z,9.50
2023-04-25T18:09:18.122Z,9.30
2023-04-25T18:14:21.343Z,9.20
2023-04-25T18:19:23.223Z,9.00
2023-04-25T18:24:28.416Z,8.90
2023-04-25T18:29:33.717Z,8.90
2023-04-25T18:34:43.020Z,8.80
2023-04-25T18:39:44.775Z,8.70
2023-04-25T18:44:47.799Z,8.80
2023-04-25T18:49:50.743Z,8.80
2023-04-25T18:54:52.718Z,8.80
2023-04-25T18:59:54.866Z,8.80
2023-04-25T19:04:57.354Z,8.80
2023-04-25T19:09:59.131Z,8.80
2023-04-25T19:15:02.069Z,9.00
2023-04-25T19:20:04.270Z,8.90
2023-04-25T19:25:10.289Z,9.00
2023-04-25T19:30:12.967Z,9.00
2023-04-25T19:35:14.733Z,9.00
2023-04-25T19:40:18.295Z,9.10
2023-04-25T19:45:21.826Z,8.80
2023-04-25T19:50:23.779Z,8.80
2023-04-25T19:55:26.815Z,8.80
2023-04-25T20:00:29.287Z,8.80
2023-04-25T20:05:32.171Z,8.60
2023-04-25T20:10:33.877Z,8.60
2023-04-25T20:15:35.593Z,8.50
2023-04-25T20:20:37.338Z,8.50
2023-04-25T20:25:39.275Z,8.50
2023-04-25T20:30:41.811Z,8.40
2023-04-25T20:35:43.890Z,8.30
2023-04-25T20:40:45.974Z,8.20
2023-04-25T20:45:47.730Z,8.10
2023-04-25T20:50:49.720Z,8.10
2023-04-25T20:55:51.590Z,8.10
2023-04-25T21:00:56.452Z,8.00
2023-04-25T21:05:58.449Z,8.00
2023-04-25T21:11:00.523Z,8.00
2023-04-25T21:16:03.351Z,8.20
2023-04-25T21:21:05.261Z,8.00
2023-04-25T21:26:07.118Z,8.00
2023-04-25T21:31:08.969Z,8.10
2023-04-25T21:36:11.050Z,8.10
2023-04-25T21:41:12.815Z,8.10
2023-04-25T21:46:23.301Z,8.00
2023-04-25T21:51:25.835Z,8.00
2023-04-25T21:56:27.582Z,7.90
2023-04-25T22:01:29.367Z,7.90
2023-04-25T22:06:31.370Z,7.80
2023-04-25T22:11:33.160Z,7.70
2023-04-25T22:16:35.057Z,7.50
2023-04-25T22:21:37.287Z,7.40
2023-04-25T22:26:39.222Z,7.30
2023-04-25T22:31:42.226Z,7.30
2023-04-25T22:36:44.175Z,7.30
2023-04-25T22:41:46.481Z,7.30
2023-04-25T22:46:50.615Z,7.30
2023-04-25T22:51:55.511Z,7.10
2023-04-25T22:56:57.925Z,7.00
2023-04-25T23:02:00.127Z,7.00
2023-04-25T23:07:02.001Z,7.00
2023-04-25T23:12:04.530Z,7.00
2023-04-25T23:17:06.635Z,6.90
2023-04-25T23:22:09.058Z,6.80
2023-04-25T23:27:10.852Z,6.70
2023-04-25T23:32:12.958Z,6.60
2023-04-25T23:37:14.705Z,6.60
2023-04-25T23:42:19.726Z,6.50
2023-04-25T23:47:21.468Z,6.40
2023-04-25T23:52:23.663Z,6.50
2023-04-25T23:57:25.450Z,6.50
